Terminal Aerodrome Forecast
Issued by NWS

Home | Current Version | Previous Version | Text Only | Print | Product List | Glossary Off
Versions: 1 2 3 4 5 6 7 8 9 10 11 12 13

000
FTUS43 KGRB 242300
TAFMTW
TAF
KMTW 242325Z 2500/2524 11010KT P6SM OVC080
      TEMPO 2502/2505 -SHRA BKN040
     FM250700 07010KT P6SM OVC050
     FM251500 06015G24KT P6SM BKN080=

USA.gov is the U.S. government's official web portal to all federal, state and local government web resources and services.